sensor_id;sensor_type;location;lat;lon;timestamp;P1;durP1;ratioP1;P2;durP2;ratioP2
48861;SDS011;34681;49.188;-0.374;2023-05-20T00:01:55;19.57;;;10.20;;
48861;SDS011;34681;49.188;-0.374;2023-05-20T00:04:20;18.40;;;9.60;;
48861;SDS011;34681;49.188;-0.374;2023-05-20T00:06:46;29.70;;;10.73;;
48861;SDS011;34681;49.188;-0.374;2023-05-20T00:09:11;25.83;;;12.17;;
48861;SDS011;34681;49.188;-0.374;2023-05-20T00:11:36;13.90;;;9.57;;
48861;SDS011;34681;49.188;-0.374;2023-05-20T00:14:02;18.80;;;10.50;;
48861;SDS011;34681;49.188;-0.374;2023-05-20T00:16:27;28.47;;;11.17;;
48861;SDS011;34681;49.188;-0.374;2023-05-20T00:18:52;25.53;;;12.63;;
48861;SDS011;34681;49.188;-0.374;2023-05-20T00:21:18;30.60;;;11.80;;
48861;SDS011;34681;49.188;-0.374;2023-05-20T00:23:43;24.17;;;10.83;;
48861;SDS011;34681;49.188;-0.374;2023-05-20T00:26:08;28.63;;;10.60;;
48861;SDS011;34681;49.188;-0.374;2023-05-20T00:28:34;25.60;;;11.40;;
48861;SDS011;34681;49.188;-0.374;2023-05-20T00:31:00;22.70;;;10.90;;
48861;SDS011;34681;49.188;-0.374;2023-05-20T00:33:25;26.87;;;11.23;;
48861;SDS011;34681;49.188;-0.374;2023-05-20T00:35:50;26.20;;;11.10;;
48861;SDS011;34681;49.188;-0.374;2023-05-20T00:38:16;20.97;;;9.57;;
48861;SDS011;34681;49.188;-0.374;2023-05-20T00:40:41;23.57;;;11.03;;
48861;SDS011;34681;49.188;-0.374;2023-05-20T00:43:06;31.33;;;11.40;;
48861;SDS011;34681;49.188;-0.374;2023-05-20T00:45:32;17.13;;;10.97;;
48861;SDS011;34681;49.188;-0.374;2023-05-20T00:47:57;30.03;;;13.40;;
48861;SDS011;34681;49.188;-0.374;2023-05-20T00:50:25;22.00;;;9.63;;
48861;SDS011;34681;49.188;-0.374;2023-05-20T00:52:51;23.47;;;11.57;;
48861;SDS011;34681;49.188;-0.374;2023-05-20T00:55:19;17.07;;;9.50;;
48861;SDS011;34681;49.188;-0.374;2023-05-20T00:57:44;20.93;;;9.97;;
48861;SDS011;34681;49.188;-0.374;2023-05-20T01:00:10;24.83;;;10.00;;
48861;SDS011;34681;49.188;-0.374;2023-05-20T01:02:37;15.83;;;10.10;;
48861;SDS011;34681;49.188;-0.374;2023-05-20T01:05:02;18.03;;;10.03;;
48861;SDS011;34681;49.188;-0.374;2023-05-20T01:07:28;22.17;;;11.40;;
48861;SDS011;34681;49.188;-0.374;2023-05-20T01:09:53;28.33;;;11.03;;
48861;SDS011;34681;49.188;-0.374;2023-05-20T01:12:30;21.10;;;10.47;;
48861;SDS011;34681;49.188;-0.374;2023-05-20T01:15:00;28.77;;;10.90;;
48861;SDS011;34681;49.188;-0.374;2023-05-20T01:17:32;29.70;;;9.90;;
48861;SDS011;34681;49.188;-0.374;2023-05-20T01:20:04;22.13;;;9.50;;
48861;SDS011;34681;49.188;-0.374;2023-05-20T01:22:35;26.60;;;11.70;;
48861;SDS011;34681;49.188;-0.374;2023-05-20T01:25:01;26.77;;;10.93;;
48861;SDS011;34681;49.188;-0.374;2023-05-20T01:27:27;27.97;;;10.93;;
48861;SDS011;34681;49.188;-0.374;2023-05-20T01:29:54;19.30;;;10.43;;
48861;SDS011;34681;49.188;-0.374;2023-05-20T01:32:21;26.00;;;10.47;;
48861;SDS011;34681;49.188;-0.374;2023-05-20T01:34:49;21.03;;;9.97;;
48861;SDS011;34681;49.188;-0.374;2023-05-20T01:37:16;39.53;;;11.07;;
48861;SDS011;34681;49.188;-0.374;2023-05-20T01:39:42;20.83;;;11.10;;
48861;SDS011;34681;49.188;-0.374;2023-05-20T01:42:08;17.90;;;9.80;;
48861;SDS011;34681;49.188;-0.374;2023-05-20T01:44:34;26.33;;;11.60;;
48861;SDS011;34681;49.188;-0.374;2023-05-20T01:47:00;25.10;;;11.50;;
48861;SDS011;34681;49.188;-0.374;2023-05-20T01:49:25;24.37;;;12.13;;
48861;SDS011;34681;49.188;-0.374;2023-05-20T01:51:51;27.00;;;10.50;;
48861;SDS011;34681;49.188;-0.374;2023-05-20T01:54:16;17.10;;;10.13;;
48861;SDS011;34681;49.188;-0.374;2023-05-20T01:56:41;20.90;;;10.43;;
48861;SDS011;34681;49.188;-0.374;2023-05-20T01:59:07;27.23;;;11.30;;
48861;SDS011;34681;49.188;-0.374;2023-05-20T02:01:32;24.30;;;10.30;;
48861;SDS011;34681;49.188;-0.374;2023-05-20T02:03:57;23.67;;;10.90;;
48861;SDS011;34681;49.188;-0.374;2023-05-20T02:06:23;29.43;;;11.33;;
48861;SDS011;34681;49.188;-0.374;2023-05-20T02:08:48;28.83;;;14.13;;
48861;SDS011;34681;49.188;-0.374;2023-05-20T02:11:13;27.30;;;11.60;;
48861;SDS011;34681;49.188;-0.374;2023-05-20T02:13:39;23.40;;;11.40;;
48861;SDS011;34681;49.188;-0.374;2023-05-20T02:16:04;32.10;;;11.50;;
48861;SDS011;34681;49.188;-0.374;2023-05-20T02:18:30;27.47;;;11.50;;
48861;SDS011;34681;49.188;-0.374;2023-05-20T02:21:00;34.77;;;12.77;;
48861;SDS011;34681;49.188;-0.374;2023-05-20T02:23:32;32.50;;;13.37;;
48861;SDS011;34681;49.188;-0.374;2023-05-20T02:25:58;26.87;;;12.03;;
48861;SDS011;34681;49.188;-0.374;2023-05-20T02:28:24;29.23;;;12.67;;
48861;SDS011;34681;49.188;-0.374;2023-05-20T02:30:49;31.20;;;11.63;;
48861;SDS011;34681;49.188;-0.374;2023-05-20T02:33:17;18.37;;;10.50;;
48861;SDS011;34681;49.188;-0.374;2023-05-20T02:35:43;30.80;;;11.13;;
48861;SDS011;34681;49.188;-0.374;2023-05-20T02:38:09;26.60;;;11.13;;
48861;SDS011;34681;49.188;-0.374;2023-05-20T02:40:36;21.83;;;11.60;;
48861;SDS011;34681;49.188;-0.374;2023-05-20T02:43:01;24.00;;;9.33;;
48861;SDS011;34681;49.188;-0.374;2023-05-20T02:45:27;22.37;;;10.80;;
48861;SDS011;34681;49.188;-0.374;2023-05-20T02:47:52;24.23;;;9.93;;
48861;SDS011;34681;49.188;-0.374;2023-05-20T02:50:18;22.43;;;10.70;;
48861;SDS011;34681;49.188;-0.374;2023-05-20T02:52:43;26.83;;;9.90;;
48861;SDS011;34681;49.188;-0.374;2023-05-20T02:55:09;26.33;;;11.23;;
48861;SDS011;34681;49.188;-0.374;2023-05-20T02:57:35;27.03;;;9.10;;
48861;SDS011;34681;49.188;-0.374;2023-05-20T03:00:11;25.27;;;11.03;;
48861;SDS011;34681;49.188;-0.374;2023-05-20T03:02:40;23.97;;;9.93;;
48861;SDS011;34681;49.188;-0.374;2023-05-20T03:05:05;20.53;;;9.60;;
48861;SDS011;34681;49.188;-0.374;2023-05-20T03:07:34;18.40;;;8.70;;
48861;SDS011;34681;49.188;-0.374;2023-05-20T03:10:00;15.60;;;8.97;;
48861;SDS011;34681;49.188;-0.374;2023-05-20T03:12:27;16.33;;;7.97;;
48861;SDS011;34681;49.188;-0.374;2023-05-20T03:14:52;21.40;;;9.00;;
48861;SDS011;34681;49.188;-0.374;2023-05-20T03:17:19;23.73;;;9.60;;
48861;SDS011;34681;49.188;-0.374;2023-05-20T03:19:45;25.33;;;10.23;;
48861;SDS011;34681;49.188;-0.374;2023-05-20T03:22:11;20.50;;;8.60;;
48861;SDS011;34681;49.188;-0.374;2023-05-20T03:24:36;32.53;;;8.87;;
48861;SDS011;34681;49.188;-0.374;2023-05-20T03:27:02;24.60;;;8.93;;
48861;SDS011;34681;49.188;-0.374;2023-05-20T03:29:27;26.97;;;10.10;;
48861;SDS011;34681;49.188;-0.374;2023-05-20T03:31:53;25.03;;;10.23;;
48861;SDS011;34681;49.188;-0.374;2023-05-20T03:34:18;26.43;;;10.00;;
48861;SDS011;34681;49.188;-0.374;2023-05-20T03:36:43;31.17;;;10.30;;
48861;SDS011;34681;49.188;-0.374;2023-05-20T03:39:09;19.60;;;8.77;;
48861;SDS011;34681;49.188;-0.374;2023-05-20T03:41:34;21.33;;;8.90;;
48861;SDS011;34681;49.188;-0.374;2023-05-20T03:43:59;15.83;;;8.73;;
48861;SDS011;34681;49.188;-0.374;2023-05-20T03:46:25;23.40;;;8.70;;
48861;SDS011;34681;49.188;-0.374;2023-05-20T03:48:50;15.53;;;8.50;;
48861;SDS011;34681;49.188;-0.374;2023-05-20T03:51:15;24.87;;;10.60;;
48861;SDS011;34681;49.188;-0.374;2023-05-20T03:53:40;29.00;;;9.50;;
48861;SDS011;34681;49.188;-0.374;2023-05-20T03:56:06;22.23;;;9.67;;
48861;SDS011;34681;49.188;-0.374;2023-05-20T03:58:31;24.67;;;11.10;;
48861;SDS011;34681;49.188;-0.374;2023-05-20T04:00:57;27.43;;;8.90;;
48861;SDS011;34681;49.188;-0.374;2023-05-20T04:03:22;31.03;;;10.37;;
48861;SDS011;34681;49.188;-0.374;2023-05-20T04:05:48;27.47;;;9.33;;
48861;SDS011;34681;49.188;-0.374;2023-05-20T04:08:13;21.93;;;10.40;;
48861;SDS011;34681;49.188;-0.374;2023-05-20T04:10:42;21.20;;;9.47;;
48861;SDS011;34681;49.188;-0.374;2023-05-20T04:13:07;28.70;;;10.27;;
48861;SDS011;34681;49.188;-0.374;2023-05-20T04:15:34;37.43;;;11.30;;
48861;SDS011;34681;49.188;-0.374;2023-05-20T04:18:00;22.07;;;9.20;;
48861;SDS011;34681;49.188;-0.374;2023-05-20T04:20:26;26.47;;;8.87;;
48861;SDS011;34681;49.188;-0.374;2023-05-20T04:22:51;30.27;;;10.80;;
48861;SDS011;34681;49.188;-0.374;2023-05-20T04:25:18;29.17;;;10.20;;
48861;SDS011;34681;49.188;-0.374;2023-05-20T04:27:43;23.77;;;10.40;;
48861;SDS011;34681;49.188;-0.374;2023-05-20T04:30:09;33.60;;;10.87;;
48861;SDS011;34681;49.188;-0.374;2023-05-20T04:32:35;22.10;;;9.50;;
48861;SDS011;34681;49.188;-0.374;2023-05-20T04:35:01;26.90;;;12.03;;
48861;SDS011;34681;49.188;-0.374;2023-05-20T04:37:27;28.37;;;10.03;;
48861;SDS011;34681;49.188;-0.374;2023-05-20T04:39:52;27.70;;;10.90;;
48861;SDS011;34681;49.188;-0.374;2023-05-20T04:42:18;23.97;;;9.90;;
48861;SDS011;34681;49.188;-0.374;2023-05-20T04:44:45;26.73;;;11.10;;
48861;SDS011;34681;49.188;-0.374;2023-05-20T04:47:12;25.57;;;11.57;;
48861;SDS011;34681;49.188;-0.374;2023-05-20T04:49:37;21.03;;;10.10;;
48861;SDS011;34681;49.188;-0.374;2023-05-20T04:52:03;32.07;;;13.20;;
48861;SDS011;34681;49.188;-0.374;2023-05-20T04:54:29;29.73;;;11.03;;
48861;SDS011;34681;49.188;-0.374;2023-05-20T04:56:55;31.60;;;13.57;;
48861;SDS011;34681;49.188;-0.374;2023-05-20T04:59:20;26.53;;;11.30;;
48861;SDS011;34681;49.188;-0.374;2023-05-20T05:01:46;31.47;;;12.17;;
48861;SDS011;34681;49.188;-0.374;2023-05-20T05:04:11;30.87;;;12.37;;
48861;SDS011;34681;49.188;-0.374;2023-05-20T05:06:37;31.90;;;12.93;;
48861;SDS011;34681;49.188;-0.374;2023-05-20T05:09:02;25.73;;;13.77;;
48861;SDS011;34681;49.188;-0.374;2023-05-20T05:11:28;36.13;;;12.80;;
48861;SDS011;34681;49.188;-0.374;2023-05-20T05:13:54;24.67;;;12.97;;
48861;SDS011;34681;49.188;-0.374;2023-05-20T05:16:19;23.93;;;13.17;;
48861;SDS011;34681;49.188;-0.374;2023-05-20T05:18:44;29.37;;;14.47;;
48861;SDS011;34681;49.188;-0.374;2023-05-20T05:21:10;43.70;;;14.70;;
48861;SDS011;34681;49.188;-0.374;2023-05-20T05:23:35;31.23;;;15.50;;
48861;SDS011;34681;49.188;-0.374;2023-05-20T05:26:00;28.80;;;12.27;;
48861;SDS011;34681;49.188;-0.374;2023-05-20T05:28:26;41.20;;;16.43;;
48861;SDS011;34681;49.188;-0.374;2023-05-20T05:30:53;28.33;;;13.70;;
48861;SDS011;34681;49.188;-0.374;2023-05-20T05:33:19;26.00;;;13.37;;
48861;SDS011;34681;49.188;-0.374;2023-05-20T05:35:45;30.70;;;13.00;;
48861;SDS011;34681;49.188;-0.374;2023-05-20T05:38:10;32.87;;;14.60;;
48861;SDS011;34681;49.188;-0.374;2023-05-20T05:40:35;34.47;;;15.60;;
48861;SDS011;34681;49.188;-0.374;2023-05-20T05:43:01;34.57;;;16.33;;
48861;SDS011;34681;49.188;-0.374;2023-05-20T05:45:26;31.60;;;15.40;;
48861;SDS011;34681;49.188;-0.374;2023-05-20T05:47:53;30.57;;;14.97;;
48861;SDS011;34681;49.188;-0.374;2023-05-20T05:50:18;28.77;;;13.40;;
48861;SDS011;34681;49.188;-0.374;2023-05-20T05:52:43;32.17;;;13.63;;
48861;SDS011;34681;49.188;-0.374;2023-05-20T05:55:09;30.30;;;15.33;;
48861;SDS011;34681;49.188;-0.374;2023-05-20T05:57:35;29.43;;;15.00;;
48861;SDS011;34681;49.188;-0.374;2023-05-20T06:00:00;33.13;;;16.10;;
48861;SDS011;34681;49.188;-0.374;2023-05-20T06:02:26;39.00;;;17.07;;
48861;SDS011;34681;49.188;-0.374;2023-05-20T06:04:51;34.17;;;17.67;;
48861;SDS011;34681;49.188;-0.374;2023-05-20T06:07:17;40.30;;;17.53;;
48861;SDS011;34681;49.188;-0.374;2023-05-20T06:09:43;29.87;;;17.33;;
48861;SDS011;34681;49.188;-0.374;2023-05-20T06:12:08;33.37;;;17.60;;
48861;SDS011;34681;49.188;-0.374;2023-05-20T06:14:34;33.63;;;19.77;;
48861;SDS011;34681;49.188;-0.374;2023-05-20T06:16:59;31.63;;;17.60;;
48861;SDS011;34681;49.188;-0.374;2023-05-20T06:19:26;40.47;;;18.77;;
48861;SDS011;34681;49.188;-0.374;2023-05-20T06:21:51;29.33;;;17.63;;
48861;SDS011;34681;49.188;-0.374;2023-05-20T06:24:16;37.37;;;17.70;;
48861;SDS011;34681;49.188;-0.374;2023-05-20T06:26:41;31.23;;;18.00;;
48861;SDS011;34681;49.188;-0.374;2023-05-20T06:29:09;29.37;;;20.10;;
48861;SDS011;34681;49.188;-0.374;2023-05-20T06:31:34;36.40;;;18.93;;
48861;SDS011;34681;49.188;-0.374;2023-05-20T06:33:59;27.63;;;18.37;;
48861;SDS011;34681;49.188;-0.374;2023-05-20T06:36:25;30.33;;;17.17;;
48861;SDS011;34681;49.188;-0.374;2023-05-20T06:38:51;34.47;;;18.50;;
48861;SDS011;34681;49.188;-0.374;2023-05-20T06:41:16;29.77;;;14.90;;
48861;SDS011;34681;49.188;-0.374;2023-05-20T06:43:41;25.07;;;12.67;;
48861;SDS011;34681;49.188;-0.374;2023-05-20T06:46:07;22.73;;;13.03;;
48861;SDS011;34681;49.188;-0.374;2023-05-20T06:48:32;28.50;;;12.60;;
48861;SDS011;34681;49.188;-0.374;2023-05-20T06:50:57;25.10;;;12.33;;
48861;SDS011;34681;49.188;-0.374;2023-05-20T06:53:23;20.07;;;11.90;;
48861;SDS011;34681;49.188;-0.374;2023-05-20T06:55:48;16.93;;;11.00;;
48861;SDS011;34681;49.188;-0.374;2023-05-20T06:58:14;19.57;;;10.33;;
48861;SDS011;34681;49.188;-0.374;2023-05-20T07:00:39;21.23;;;11.13;;
48861;SDS011;34681;49.188;-0.374;2023-05-20T07:03:05;24.50;;;12.07;;
48861;SDS011;34681;49.188;-0.374;2023-05-20T07:05:30;24.73;;;11.20;;
48861;SDS011;34681;49.188;-0.374;2023-05-20T07:07:56;26.00;;;12.00;;
48861;SDS011;34681;49.188;-0.374;2023-05-20T07:10:21;24.63;;;12.30;;
48861;SDS011;34681;49.188;-0.374;2023-05-20T07:12:47;25.77;;;12.20;;
48861;SDS011;34681;49.188;-0.374;2023-05-20T07:15:12;28.83;;;14.10;;
48861;SDS011;34681;49.188;-0.374;2023-05-20T07:17:38;20.67;;;11.67;;
48861;SDS011;34681;49.188;-0.374;2023-05-20T07:20:04;21.20;;;10.50;;
48861;SDS011;34681;49.188;-0.374;2023-05-20T07:22:30;21.37;;;11.17;;
48861;SDS011;34681;49.188;-0.374;2023-05-20T07:24:55;20.37;;;10.50;;
48861;SDS011;34681;49.188;-0.374;2023-05-20T07:27:21;27.00;;;10.27;;
48861;SDS011;34681;49.188;-0.374;2023-05-20T07:29:46;21.70;;;10.77;;
48861;SDS011;34681;49.188;-0.374;2023-05-20T07:32:12;25.47;;;12.27;;
48861;SDS011;34681;49.188;-0.374;2023-05-20T07:34:37;23.63;;;10.67;;
48861;SDS011;34681;49.188;-0.374;2023-05-20T07:37:02;31.77;;;12.30;;
48861;SDS011;34681;49.188;-0.374;2023-05-20T07:39:28;25.30;;;12.53;;
48861;SDS011;34681;49.188;-0.374;2023-05-20T07:41:53;27.07;;;11.73;;
48861;SDS011;34681;49.188;-0.374;2023-05-20T07:44:18;22.80;;;11.17;;
48861;SDS011;34681;49.188;-0.374;2023-05-20T07:46:46;24.10;;;10.83;;
48861;SDS011;34681;49.188;-0.374;2023-05-20T07:49:11;25.27;;;13.77;;
48861;SDS011;34681;49.188;-0.374;2023-05-20T07:51:36;23.70;;;11.30;;
48861;SDS011;34681;49.188;-0.374;2023-05-20T07:54:02;28.13;;;11.30;;
48861;SDS011;34681;49.188;-0.374;2023-05-20T07:56:27;40.53;;;13.17;;
48861;SDS011;34681;49.188;-0.374;2023-05-20T07:58:53;21.00;;;10.20;;
48861;SDS011;34681;49.188;-0.374;2023-05-20T08:01:20;18.43;;;9.87;;
48861;SDS011;34681;49.188;-0.374;2023-05-20T08:03:46;17.90;;;8.73;;
48861;SDS011;34681;49.188;-0.374;2023-05-20T08:06:11;19.37;;;9.60;;
48861;SDS011;34681;49.188;-0.374;2023-05-20T08:08:36;27.57;;;10.73;;
48861;SDS011;34681;49.188;-0.374;2023-05-20T08:11:04;14.63;;;8.43;;
48861;SDS011;34681;49.188;-0.374;2023-05-20T08:13:29;16.37;;;8.97;;
48861;SDS011;34681;49.188;-0.374;2023-05-20T08:15:55;21.20;;;9.00;;
48861;SDS011;34681;49.188;-0.374;2023-05-20T08:18:21;21.37;;;9.20;;
48861;SDS011;34681;49.188;-0.374;2023-05-20T08:20:46;20.03;;;8.93;;
48861;SDS011;34681;49.188;-0.374;2023-05-20T08:23:12;21.27;;;9.57;;
48861;SDS011;34681;49.188;-0.374;2023-05-20T08:25:37;22.80;;;9.50;;
48861;SDS011;34681;49.188;-0.374;2023-05-20T08:28:03;24.77;;;10.67;;
48861;SDS011;34681;49.188;-0.374;2023-05-20T08:30:30;17.37;;;9.67;;
48861;SDS011;34681;49.188;-0.374;2023-05-20T08:32:56;23.00;;;11.10;;
48861;SDS011;34681;49.188;-0.374;2023-05-20T08:35:24;22.87;;;9.40;;
48861;SDS011;34681;49.188;-0.374;2023-05-20T08:37:55;17.70;;;10.10;;
48861;SDS011;34681;49.188;-0.374;2023-05-20T08:40:21;20.30;;;9.33;;
48861;SDS011;34681;49.188;-0.374;2023-05-20T08:42:47;21.93;;;10.40;;
48861;SDS011;34681;49.188;-0.374;2023-05-20T08:45:16;20.97;;;9.00;;
48861;SDS011;34681;49.188;-0.374;2023-05-20T08:47:42;19.60;;;9.90;;
48861;SDS011;34681;49.188;-0.374;2023-05-20T08:50:08;22.60;;;10.93;;
48861;SDS011;34681;49.188;-0.374;2023-05-20T08:52:41;25.83;;;10.83;;
48861;SDS011;34681;49.188;-0.374;2023-05-20T08:55:10;26.03;;;10.30;;
48861;SDS011;34681;49.188;-0.374;2023-05-20T08:57:40;27.33;;;8.80;;
48861;SDS011;34681;49.188;-0.374;2023-05-20T09:00:09;22.77;;;10.60;;
48861;SDS011;34681;49.188;-0.374;2023-05-20T09:02:40;21.80;;;10.00;;
48861;SDS011;34681;49.188;-0.374;2023-05-20T09:05:06;29.73;;;11.13;;
48861;SDS011;34681;49.188;-0.374;2023-05-20T09:07:33;22.17;;;10.73;;
48861;SDS011;34681;49.188;-0.374;2023-05-20T09:09:58;26.60;;;11.63;;
48861;SDS011;34681;49.188;-0.374;2023-05-20T09:12:23;21.03;;;11.07;;
48861;SDS011;34681;49.188;-0.374;2023-05-20T09:14:49;21.87;;;10.70;;
48861;SDS011;34681;49.188;-0.374;2023-05-20T09:17:14;23.83;;;10.00;;
48861;SDS011;34681;49.188;-0.374;2023-05-20T09:19:41;18.47;;;10.23;;
48861;SDS011;34681;49.188;-0.374;2023-05-20T09:22:07;21.63;;;11.40;;
48861;SDS011;34681;49.188;-0.374;2023-05-20T09:24:32;26.33;;;10.80;;
48861;SDS011;34681;49.188;-0.374;2023-05-20T09:26:57;24.00;;;11.40;;
48861;SDS011;34681;49.188;-0.374;2023-05-20T09:29:24;26.20;;;11.07;;
48861;SDS011;34681;49.188;-0.374;2023-05-20T09:31:50;18.50;;;10.30;;
48861;SDS011;34681;49.188;-0.374;2023-05-20T09:34:16;23.40;;;10.80;;
48861;SDS011;34681;49.188;-0.374;2023-05-20T09:36:42;19.23;;;10.33;;
48861;SDS011;34681;49.188;-0.374;2023-05-20T09:39:11;16.60;;;10.17;;
48861;SDS011;34681;49.188;-0.374;2023-05-20T09:41:41;27.17;;;11.30;;
48861;SDS011;34681;49.188;-0.374;2023-05-20T09:44:22;19.07;;;10.80;;
48861;SDS011;34681;49.188;-0.374;2023-05-20T09:46:47;20.43;;;10.20;;
48861;SDS011;34681;49.188;-0.374;2023-05-20T09:49:15;21.43;;;11.70;;
48861;SDS011;34681;49.188;-0.374;2023-05-20T09:51:41;24.20;;;14.43;;
48861;SDS011;34681;49.188;-0.374;2023-05-20T09:54:08;24.60;;;11.20;;
48861;SDS011;34681;49.188;-0.374;2023-05-20T09:56:36;22.10;;;12.47;;
48861;SDS011;34681;49.188;-0.374;2023-05-20T09:59:04;19.00;;;11.60;;
48861;SDS011;34681;49.188;-0.374;2023-05-20T10:01:30;29.23;;;12.90;;
48861;SDS011;34681;49.188;-0.374;2023-05-20T10:03:55;26.77;;;12.20;;
48861;SDS011;34681;49.188;-0.374;2023-05-20T10:20:26;25.00;;;10.60;;
48861;SDS011;34681;49.188;-0.374;2023-05-20T10:22:55;25.53;;;10.93;;
48861;SDS011;34681;49.188;-0.374;2023-05-20T10:25:27;31.10;;;11.90;;
48861;SDS011;34681;49.188;-0.374;2023-05-20T10:28:03;23.10;;;9.50;;
48861;SDS011;34681;49.188;-0.374;2023-05-20T10:30:31;27.33;;;11.90;;
48861;SDS011;34681;49.188;-0.374;2023-05-20T10:33:01;28.20;;;11.47;;
48861;SDS011;34681;49.188;-0.374;2023-05-20T10:35:28;17.57;;;11.47;;
48861;SDS011;34681;49.188;-0.374;2023-05-20T10:38:04;42.00;;;28.03;;
48861;SDS011;34681;49.188;-0.374;2023-05-20T10:40:32;27.70;;;11.53;;
48861;SDS011;34681;49.188;-0.374;2023-05-20T10:43:07;24.17;;;11.93;;
48861;SDS011;34681;49.188;-0.374;2023-05-20T10:45:33;24.80;;;12.70;;
48861;SDS011;34681;49.188;-0.374;2023-05-20T10:48:01;24.90;;;12.70;;
48861;SDS011;34681;49.188;-0.374;2023-05-20T10:53:03;19.77;;;11.77;;
48861;SDS011;34681;49.188;-0.374;2023-05-20T10:55:39;20.00;;;11.17;;
48861;SDS011;34681;49.188;-0.374;2023-05-20T10:58:05;24.33;;;11.50;;
48861;SDS011;34681;49.188;-0.374;2023-05-20T11:00:34;28.87;;;12.43;;
48861;SDS011;34681;49.188;-0.374;2023-05-20T11:03:03;17.50;;;10.27;;
48861;SDS011;34681;49.188;-0.374;2023-05-20T11:05:29;18.67;;;10.37;;
48861;SDS011;34681;49.188;-0.374;2023-05-20T11:07:59;30.70;;;11.63;;
48861;SDS011;34681;49.188;-0.374;2023-05-20T11:10:28;27.53;;;11.33;;
48861;SDS011;34681;49.188;-0.374;2023-05-20T11:12:55;24.93;;;13.20;;
48861;SDS011;34681;49.188;-0.374;2023-05-20T11:15:21;51.87;;;27.87;;
48861;SDS011;34681;49.188;-0.374;2023-05-20T11:20:18;23.77;;;13.13;;
48861;SDS011;34681;49.188;-0.374;2023-05-20T11:22:44;36.20;;;15.07;;
48861;SDS011;34681;49.188;-0.374;2023-05-20T11:25:09;25.07;;;11.90;;
48861;SDS011;34681;49.188;-0.374;2023-05-20T11:27:38;27.93;;;12.77;;
48861;SDS011;34681;49.188;-0.374;2023-05-20T11:30:04;25.03;;;11.30;;
48861;SDS011;34681;49.188;-0.374;2023-05-20T11:32:30;17.47;;;10.37;;
48861;SDS011;34681;49.188;-0.374;2023-05-20T11:34:56;20.00;;;10.97;;
48861;SDS011;34681;49.188;-0.374;2023-05-20T11:37:22;24.73;;;11.63;;
48861;SDS011;34681;49.188;-0.374;2023-05-20T11:39:48;23.73;;;10.10;;
48861;SDS011;34681;49.188;-0.374;2023-05-20T11:42:13;22.23;;;10.13;;
48861;SDS011;34681;49.188;-0.374;2023-05-20T11:44:42;22.70;;;10.97;;
48861;SDS011;34681;49.188;-0.374;2023-05-20T11:47:09;24.40;;;11.47;;
48861;SDS011;34681;49.188;-0.374;2023-05-20T11:49:40;23.37;;;10.10;;
48861;SDS011;34681;49.188;-0.374;2023-05-20T11:52:07;24.60;;;10.87;;
48861;SDS011;34681;49.188;-0.374;2023-05-20T11:54:36;25.23;;;11.17;;
48861;SDS011;34681;49.188;-0.374;2023-05-20T11:57:02;21.93;;;10.83;;
48861;SDS011;34681;49.188;-0.374;2023-05-20T11:59:27;27.73;;;10.70;;
48861;SDS011;34681;49.188;-0.374;2023-05-20T12:01:53;25.20;;;11.27;;
48861;SDS011;34681;49.188;-0.374;2023-05-20T12:04:18;25.00;;;10.47;;
48861;SDS011;34681;49.188;-0.374;2023-05-20T12:06:44;27.93;;;10.93;;
48861;SDS011;34681;49.188;-0.374;2023-05-20T12:09:09;24.23;;;12.30;;
48861;SDS011;34681;49.188;-0.374;2023-05-20T12:11:35;19.57;;;11.30;;
48861;SDS011;34681;49.188;-0.374;2023-05-20T12:14:03;21.43;;;10.70;;
48861;SDS011;34681;49.188;-0.374;2023-05-20T12:16:32;23.13;;;9.40;;
48861;SDS011;34681;49.188;-0.374;2023-05-20T12:18:58;27.37;;;12.00;;
48861;SDS011;34681;49.188;-0.374;2023-05-20T12:21:24;21.90;;;10.27;;
48861;SDS011;34681;49.188;-0.374;2023-05-20T12:23:50;32.13;;;10.80;;
48861;SDS011;34681;49.188;-0.374;2023-05-20T12:26:21;19.20;;;9.73;;
48861;SDS011;34681;49.188;-0.374;2023-05-20T12:28:47;29.40;;;10.10;;
48861;SDS011;34681;49.188;-0.374;2023-05-20T12:31:12;29.43;;;10.80;;
48861;SDS011;34681;49.188;-0.374;2023-05-20T12:33:38;27.47;;;10.20;;
48861;SDS011;34681;49.188;-0.374;2023-05-20T12:36:03;21.50;;;10.87;;
48861;SDS011;34681;49.188;-0.374;2023-05-20T12:38:30;18.93;;;10.30;;
48861;SDS011;34681;49.188;-0.374;2023-05-20T12:40:55;26.10;;;10.57;;
48861;SDS011;34681;49.188;-0.374;2023-05-20T12:43:20;27.73;;;11.17;;
48861;SDS011;34681;49.188;-0.374;2023-05-20T12:45:46;18.23;;;10.03;;
48861;SDS011;34681;49.188;-0.374;2023-05-20T12:48:11;22.70;;;9.07;;
48861;SDS011;34681;49.188;-0.374;2023-05-20T12:50:36;18.10;;;8.80;;
48861;SDS011;34681;49.188;-0.374;2023-05-20T12:53:02;26.50;;;9.10;;
48861;SDS011;34681;49.188;-0.374;2023-05-20T12:55:27;21.63;;;9.67;;
48861;SDS011;34681;49.188;-0.374;2023-05-20T12:57:53;20.47;;;9.30;;
48861;SDS011;34681;49.188;-0.374;2023-05-20T13:00:20;19.87;;;8.93;;
48861;SDS011;34681;49.188;-0.374;2023-05-20T13:02:45;18.50;;;9.40;;
48861;SDS011;34681;49.188;-0.374;2023-05-20T13:05:10;22.60;;;9.73;;
48861;SDS011;34681;49.188;-0.374;2023-05-20T13:07:37;24.90;;;9.10;;
48861;SDS011;34681;49.188;-0.374;2023-05-20T13:10:03;20.80;;;9.63;;
48861;SDS011;34681;49.188;-0.374;2023-05-20T13:12:29;22.33;;;7.80;;
48861;SDS011;34681;49.188;-0.374;2023-05-20T13:14:54;24.43;;;9.03;;
48861;SDS011;34681;49.188;-0.374;2023-05-20T13:17:20;20.27;;;8.93;;
48861;SDS011;34681;49.188;-0.374;2023-05-20T13:19:45;22.17;;;9.33;;
48861;SDS011;34681;49.188;-0.374;2023-05-20T13:22:11;23.50;;;8.87;;
48861;SDS011;34681;49.188;-0.374;2023-05-20T13:24:36;18.17;;;7.80;;
48861;SDS011;34681;49.188;-0.374;2023-05-20T13:27:01;18.97;;;8.10;;
48861;SDS011;34681;49.188;-0.374;2023-05-20T13:29:27;20.60;;;8.90;;
48861;SDS011;34681;49.188;-0.374;2023-05-20T13:31:52;20.20;;;8.47;;
48861;SDS011;34681;49.188;-0.374;2023-05-20T13:34:18;18.57;;;8.30;;
48861;SDS011;34681;49.188;-0.374;2023-05-20T13:36:43;20.57;;;7.40;;
48861;SDS011;34681;49.188;-0.374;2023-05-20T13:39:10;16.43;;;7.93;;
48861;SDS011;34681;49.188;-0.374;2023-05-20T13:41:35;29.00;;;8.40;;
48861;SDS011;34681;49.188;-0.374;2023-05-20T13:44:01;18.23;;;8.30;;
48861;SDS011;34681;49.188;-0.374;2023-05-20T13:46:26;18.67;;;6.67;;
48861;SDS011;34681;49.188;-0.374;2023-05-20T13:48:52;15.60;;;6.70;;
48861;SDS011;34681;49.188;-0.374;2023-05-20T13:51:17;23.00;;;7.80;;
48861;SDS011;34681;49.188;-0.374;2023-05-20T13:53:43;20.90;;;8.50;;
48861;SDS011;34681;49.188;-0.374;2023-05-20T13:56:08;14.20;;;7.13;;
48861;SDS011;34681;49.188;-0.374;2023-05-20T13:58:34;18.67;;;7.03;;
48861;SDS011;34681;49.188;-0.374;2023-05-20T14:01:01;14.33;;;6.80;;
48861;SDS011;34681;49.188;-0.374;2023-05-20T14:03:28;14.87;;;7.00;;
48861;SDS011;34681;49.188;-0.374;2023-05-20T14:05:54;18.43;;;8.43;;
48861;SDS011;34681;49.188;-0.374;2023-05-20T14:08:19;15.90;;;6.00;;
48861;SDS011;34681;49.188;-0.374;2023-05-20T14:10:45;19.13;;;7.63;;
48861;SDS011;34681;49.188;-0.374;2023-05-20T14:13:10;17.23;;;6.97;;
48861;SDS011;34681;49.188;-0.374;2023-05-20T14:15:36;18.53;;;7.50;;
48861;SDS011;34681;49.188;-0.374;2023-05-20T14:18:01;14.93;;;6.70;;
48861;SDS011;34681;49.188;-0.374;2023-05-20T14:20:26;14.97;;;6.00;;
48861;SDS011;34681;49.188;-0.374;2023-05-20T14:22:52;19.97;;;6.67;;
48861;SDS011;34681;49.188;-0.374;2023-05-20T14:25:17;19.63;;;6.77;;
48861;SDS011;34681;49.188;-0.374;2023-05-20T14:27:43;13.43;;;6.60;;